createdAt,value
2022-10-11T00:01:46.844Z,9.70
2022-10-11T00:05:47.953Z,16.52
2022-10-11T00:09:47.468Z,16.38
2022-10-11T00:13:47.396Z,14.45
2022-10-11T00:17:49.780Z,19.67
2022-10-11T00:21:49.553Z,14.55
2022-10-11T00:25:58.845Z,10.10
2022-10-11T00:29:58.773Z,12.13
2022-10-11T00:34:00.616Z,10.65
2022-10-11T00:38:00.472Z,9.20
2022-10-11T00:42:00.245Z,8.52
2022-10-11T00:46:08.745Z,9.10
2022-10-11T00:50:13.346Z,7.90
2022-10-11T00:54:17.058Z,10.02
2022-10-11T00:58:17.191Z,10.27
2022-10-11T01:02:17.455Z,12.52
2022-10-11T01:06:18.932Z,7.25
2022-10-11T01:10:18.706Z,11.13
2022-10-11T01:14:37.889Z,14.18
2022-10-11T01:18:47.251Z,12.70
2022-10-11T01:23:15.745Z,16.70
2022-10-11T01:27:34.870Z,25.00
2022-10-11T01:31:42.335Z,10.45
2022-10-11T01:35:47.567Z,9.50
2022-10-11T01:39:53.619Z,12.15
2022-10-11T01:43:59.896Z,7.03
2022-10-11T01:48:10.370Z,18.17
2022-10-11T01:52:10.281Z,8.45
2022-10-11T01:56:25.409Z,13.95
2022-10-11T02:00:28.292Z,9.48
2022-10-11T02:04:35.843Z,13.15
2022-10-11T02:08:41.865Z,14.63
2022-10-11T02:12:44.951Z,19.20
2022-10-11T02:16:48.043Z,9.85
2022-10-11T02:20:52.267Z,15.55
2022-10-11T02:24:56.034Z,16.85
2022-10-11T02:29:00.010Z,13.15
2022-10-11T02:33:00.749Z,12.73
2022-10-11T02:37:10.505Z,13.27
2022-10-11T02:41:17.738Z,12.60
2022-10-11T02:45:21.209Z,20.80
2022-10-11T02:49:22.164Z,14.73
2022-10-11T02:53:24.664Z,13.05
2022-10-11T02:57:24.161Z,12.18
2022-10-11T03:05:22.924Z,13.07
2022-10-11T03:13:24.071Z,12.60
2022-10-11T03:17:36.101Z,19.25
2022-10-11T03:21:36.624Z,13.07
2022-10-11T03:25:38.312Z,8.57
2022-10-11T03:29:37.825Z,11.05
2022-10-11T03:33:37.420Z,10.55
2022-10-11T03:37:36.973Z,10.88
2022-10-11T03:41:38.609Z,5.45
2022-10-11T03:45:38.485Z,9.25
2022-10-11T03:49:42.748Z,12.63
2022-10-11T03:53:43.719Z,5.40
2022-10-11T03:57:45.623Z,14.95
2022-10-11T04:01:45.596Z,9.98
2022-10-11T04:05:45.590Z,9.32
2022-10-11T04:09:45.253Z,21.60
2022-10-11T04:13:47.043Z,19.98
2022-10-11T04:17:46.682Z,22.30
2022-10-11T04:21:46.328Z,16.50
2022-10-11T04:25:54.991Z,11.00
2022-10-11T04:29:56.955Z,13.85
2022-10-11T04:33:56.780Z,17.92
2022-10-11T04:37:56.317Z,15.07
2022-10-11T04:41:59.069Z,8.57
2022-10-11T04:46:00.901Z,7.22
2022-10-11T04:50:00.071Z,17.42
2022-10-11T04:54:00.028Z,10.55
2022-10-11T04:57:59.814Z,6.43
2022-10-11T05:02:01.327Z,12.65
2022-10-11T05:06:05.439Z,12.85
2022-10-11T05:10:05.350Z,7.70
2022-10-11T05:14:05.208Z,11.68
2022-10-11T05:18:07.346Z,12.13
2022-10-11T05:22:15.990Z,9.50
2022-10-11T05:26:19.476Z,11.52
2022-10-11T05:30:19.641Z,8.52
2022-10-11T05:34:21.787Z,11.75
2022-10-11T05:38:21.407Z,13.63
2022-10-11T05:42:21.170Z,12.20
2022-10-11T05:46:21.088Z,9.10
2022-10-11T05:50:24.411Z,13.77
2022-10-11T05:54:27.489Z,29.48
2022-10-11T05:58:32.919Z,16.80
2022-10-11T06:02:32.787Z,8.82
2022-10-11T06:06:36.540Z,10.23
2022-10-11T06:10:37.230Z,9.27
2022-10-11T06:14:37.798Z,12.18
2022-10-11T06:18:37.814Z,12.00
2022-10-11T06:22:40.310Z,8.55
2022-10-11T06:26:50.545Z,10.88
2022-10-11T06:34:49.026Z,20.80
2022-10-11T06:38:53.443Z,7.75
2022-10-11T06:42:54.407Z,7.65
2022-10-11T06:46:54.027Z,12.70
2022-10-11T06:50:59.938Z,11.25
2022-10-11T06:55:02.366Z,8.07
2022-10-11T06:59:03.144Z,12.90
2022-10-11T07:03:02.797Z,8.55
2022-10-11T07:07:02.453Z,13.23
2022-10-11T07:11:07.309Z,16.27
2022-10-11T07:15:08.338Z,6.47
2022-10-11T07:19:08.682Z,8.38
2022-10-11T07:23:07.798Z,9.15
2022-10-11T07:27:09.430Z,13.05
2022-10-11T07:31:11.425Z,8.05
2022-10-11T07:35:11.375Z,14.93
2022-10-11T07:39:11.580Z,12.15
2022-10-11T07:43:14.727Z,13.20
2022-10-11T07:47:14.470Z,8.77
2022-10-11T07:51:20.044Z,19.13
2022-10-11T07:55:20.042Z,20.00
2022-10-11T07:59:21.591Z,24.38
2022-10-11T08:03:21.484Z,21.70
2022-10-11T08:07:21.465Z,12.93
2022-10-11T08:11:30.337Z,8.05
2022-10-11T08:15:32.028Z,6.25
2022-10-11T08:19:31.518Z,16.13
2022-10-11T08:23:31.094Z,4.50
2022-10-11T08:27:30.807Z,9.73
2022-10-11T08:31:46.558Z,11.85
2022-10-11T08:35:52.184Z,10.95
2022-10-11T08:39:54.499Z,11.07
2022-10-11T08:44:12.618Z,11.52
2022-10-11T08:48:21.606Z,13.98
2022-10-11T08:52:28.730Z,6.60
2022-10-11T08:56:29.500Z,14.38
2022-10-11T09:00:35.395Z,10.93
2022-10-11T09:04:46.958Z,9.20
2022-10-11T09:09:01.389Z,9.50
2022-10-11T09:13:20.839Z,13.13
2022-10-11T09:17:40.295Z,8.77
2022-10-11T09:21:49.118Z,12.15
2022-10-11T09:25:57.238Z,9.20
2022-10-11T09:30:11.057Z,8.95
2022-10-11T09:34:27.766Z,8.00
2022-10-11T09:38:48.806Z,10.50
2022-10-11T09:42:48.489Z,14.13
2022-10-11T09:46:49.658Z,6.57
2022-10-11T09:50:50.866Z,4.88
2022-10-11T09:55:03.617Z,7.20
2022-10-11T09:59:24.008Z,5.72
2022-10-11T10:07:31.067Z,11.32
2022-10-11T10:11:38.868Z,10.10
2022-10-11T10:15:40.268Z,11.60
2022-10-11T10:19:45.408Z,9.02
2022-10-11T10:23:46.365Z,14.35
2022-10-11T10:27:59.016Z,5.30
2022-10-11T10:32:13.799Z,10.35
2022-10-11T10:36:29.439Z,15.02
2022-10-11T10:40:39.715Z,4.93
2022-10-11T10:44:41.714Z,14.30
2022-10-11T10:49:28.326Z,7.78
2022-10-11T10:53:36.247Z,6.07
2022-10-11T10:57:44.508Z,4.97
2022-10-11T11:01:56.514Z,4.30
2022-10-11T11:06:04.065Z,7.32
2022-10-11T11:11:23.738Z,5.78
2022-10-11T11:15:37.616Z,7.63
2022-10-11T11:19:54.550Z,14.88
2022-10-11T11:24:05.902Z,7.53
2022-10-11T11:28:20.361Z,8.98
2022-10-11T11:32:25.743Z,6.97
2022-10-11T11:36:35.762Z,17.10
2022-10-11T11:40:40.344Z,7.78
2022-10-11T11:44:42.643Z,8.85
2022-10-11T11:48:43.218Z,10.05
2022-10-11T11:52:50.260Z,9.20
2022-10-11T11:57:00.123Z,13.88
2022-10-11T12:01:07.125Z,7.80
2022-10-11T12:05:11.020Z,9.90
2022-10-11T12:09:24.928Z,10.07
2022-10-11T12:13:32.446Z,13.52
2022-10-11T12:17:32.327Z,8.13
2022-10-11T12:21:35.107Z,6.97
2022-10-11T12:26:33.056Z,9.68
2022-10-11T12:30:55.316Z,11.85
2022-10-11T12:35:44.394Z,11.40
2022-10-11T12:39:53.665Z,8.00
2022-10-11T12:48:50.970Z,13.95
2022-10-11T12:53:01.299Z,7.63
2022-10-11T12:57:22.297Z,5.97
2022-10-11T13:01:24.621Z,9.70
2022-10-11T13:05:31.937Z,9.25
2022-10-11T13:09:34.228Z,29.88
2022-10-11T13:13:39.974Z,19.60
2022-10-11T13:17:41.436Z,18.65
2022-10-11T13:21:43.565Z,41.72
2022-10-11T13:25:44.045Z,19.65
2022-10-11T13:29:47.939Z,13.35
2022-10-11T13:33:48.406Z,19.23
2022-10-11T13:37:51.671Z,22.95
2022-10-11T13:41:51.605Z,32.83
2022-10-11T13:46:02.856Z,39.28
2022-10-11T13:50:23.630Z,26.73
2022-10-11T13:55:14.865Z,15.80
2022-10-11T13:59:24.823Z,12.52
2022-10-11T14:03:32.329Z,25.70
2022-10-11T14:07:41.325Z,19.35
2022-10-11T14:11:43.416Z,25.20
2022-10-11T14:15:48.364Z,20.85
2022-10-11T14:20:11.587Z,21.83
2022-10-11T14:24:16.091Z,24.45
2022-10-11T14:28:20.622Z,13.80
2022-10-11T14:32:35.264Z,14.85
2022-10-11T14:36:43.585Z,26.83
2022-10-11T14:40:47.594Z,17.52
2022-10-11T14:45:13.467Z,16.13
2022-10-11T14:49:16.156Z,21.02
2022-10-11T14:53:16.573Z,31.25
2022-10-11T14:57:16.027Z,20.98
2022-10-11T15:01:19.525Z,28.60
2022-10-11T15:05:19.415Z,31.67
2022-10-11T15:09:20.568Z,30.10
2022-10-11T15:13:22.269Z,41.97
2022-10-11T15:17:24.158Z,38.22
2022-10-11T15:21:32.970Z,33.60
2022-10-11T15:25:34.778Z,44.05
2022-10-11T15:29:37.330Z,27.73
2022-10-11T15:33:42.400Z,19.95
2022-10-11T15:37:42.694Z,24.45
2022-10-11T15:41:42.287Z,23.13
2022-10-11T15:45:43.975Z,22.05
2022-10-11T15:50:28.984Z,23.30
2022-10-11T15:54:31.163Z,20.30
2022-10-11T15:58:32.704Z,16.10
2022-10-11T16:02:32.505Z,20.40
2022-10-11T16:06:33.036Z,32.33
2022-10-11T16:10:36.584Z,31.10
2022-10-11T16:14:36.436Z,30.67
2022-10-11T16:18:36.623Z,19.00
2022-10-11T16:22:36.222Z,28.58
2022-10-11T16:26:38.116Z,23.55
2022-10-11T16:30:40.666Z,22.02
2022-10-11T16:34:40.422Z,22.15
2022-10-11T16:38:40.123Z,23.17
2022-10-11T16:42:42.260Z,32.88
2022-10-11T16:46:42.154Z,36.40
2022-10-11T16:50:41.820Z,21.60
2022-10-11T16:54:44.087Z,23.50
2022-10-11T16:58:45.975Z,22.20
2022-10-11T17:02:45.731Z,30.60
2022-10-11T17:06:45.595Z,27.35
2022-10-11T17:10:47.255Z,21.50
2022-10-11T17:14:49.725Z,28.75
2022-10-11T17:18:49.125Z,28.70
2022-10-11T17:22:50.108Z,30.52
2022-10-11T17:26:50.068Z,34.63
2022-10-11T17:30:57.132Z,28.52
2022-10-11T17:34:58.845Z,27.00
2022-10-11T17:38:58.793Z,26.83
2022-10-11T17:42:58.528Z,28.40
2022-10-11T17:47:00.554Z,31.02
2022-10-11T17:51:00.254Z,33.05
2022-10-11T17:55:00.165Z,27.88
2022-10-11T17:59:01.122Z,27.48
2022-10-11T18:03:03.040Z,27.67
2022-10-11T18:07:02.864Z,23.77
2022-10-11T18:11:02.978Z,32.03
2022-10-11T18:15:02.220Z,20.25
2022-10-11T18:19:04.666Z,27.95
2022-10-11T18:23:04.402Z,29.38
2022-10-11T18:27:03.773Z,23.60
2022-10-11T18:31:06.430Z,23.65
2022-10-11T18:35:11.559Z,26.25
2022-10-11T18:39:14.757Z,25.50
2022-10-11T18:43:14.515Z,23.02
2022-10-11T18:47:14.225Z,23.75
2022-10-11T18:51:18.424Z,57.17
2022-10-11T18:55:18.785Z,48.35
2022-10-11T18:59:19.673Z,36.33
2022-10-11T19:03:19.482Z,32.95
2022-10-11T19:07:20.948Z,41.13
2022-10-11T19:11:24.815Z,40.15
2022-10-11T19:15:28.630Z,36.25
2022-10-11T19:19:30.604Z,40.88
2022-10-11T19:23:35.900Z,29.55
2022-10-11T19:27:35.615Z,28.05
2022-10-11T19:31:36.778Z,33.95
2022-10-11T19:35:36.675Z,37.20
2022-10-11T19:39:38.508Z,32.17
2022-10-11T19:43:38.368Z,30.33
2022-10-11T19:47:38.015Z,29.45
2022-10-11T19:51:38.129Z,26.73
2022-10-11T19:55:43.045Z,23.13
2022-10-11T19:59:46.264Z,30.85
2022-10-11T20:03:46.587Z,29.02
2022-10-11T20:07:46.325Z,26.80
2022-10-11T20:11:48.086Z,25.63
2022-10-11T20:15:47.719Z,24.52
2022-10-11T20:19:47.282Z,13.45
2022-10-11T20:23:49.074Z,11.63
2022-10-11T20:27:50.856Z,8.25
2022-10-11T20:31:50.574Z,7.05
2022-10-11T20:36:00.200Z,7.55
2022-10-11T20:39:59.400Z,13.48
2022-10-11T20:44:03.060Z,7.75
2022-10-11T20:48:02.688Z,12.00
2022-10-11T20:52:02.355Z,10.82
2022-10-11T20:56:02.527Z,9.85
2022-10-11T21:00:04.586Z,99.38
2022-10-11T21:04:04.541Z,21.13
2022-10-11T21:08:04.754Z,8.55
2022-10-11T21:12:04.386Z,11.18
2022-10-11T21:16:11.565Z,8.35
2022-10-11T21:20:12.485Z,8.35
2022-10-11T21:24:12.235Z,11.70
2022-10-11T21:28:12.099Z,5.85
2022-10-11T21:32:14.640Z,8.18
2022-10-11T21:36:15.981Z,8.75
2022-10-11T21:40:15.638Z,10.13
2022-10-11T21:52:16.794Z,5.90
2022-10-11T21:56:16.428Z,9.93
2022-10-11T22:00:17.372Z,6.50
2022-10-11T22:04:19.088Z,8.02
2022-10-11T22:08:18.255Z,5.95
2022-10-11T22:12:18.023Z,8.60
2022-10-11T22:16:17.726Z,7.63
2022-10-11T22:20:19.721Z,4.95
2022-10-11T22:24:19.434Z,7.47
2022-10-11T22:28:19.417Z,7.57
2022-10-11T22:32:19.255Z,20.55
2022-10-11T22:36:21.105Z,15.13
2022-10-11T22:40:21.406Z,7.32
2022-10-11T22:44:21.023Z,4.68
2022-10-11T22:48:20.708Z,6.93
2022-10-11T22:52:24.932Z,3.92
2022-10-11T22:56:26.822Z,5.63
2022-10-11T23:00:26.939Z,5.97
2022-10-11T23:04:26.756Z,12.70
2022-10-11T23:08:28.342Z,6.80
2022-10-11T23:12:27.933Z,6.78
2022-10-11T23:16:27.637Z,6.63
2022-10-11T23:20:27.343Z,6.43
2022-10-11T23:24:29.096Z,5.68
2022-10-11T23:28:28.666Z,5.65
2022-10-11T23:32:28.312Z,7.00
2022-10-11T23:36:28.407Z,7.40
2022-10-11T23:40:29.582Z,5.65
2022-10-11T23:44:30.339Z,5.78
2022-10-11T23:48:30.168Z,5.38
2022-10-11T23:52:32.448Z,5.85
2022-10-11T23:56:33.741Z,4.15
